createdAt,value
2017-05-25T00:00:05.232Z,99.90
2017-05-25T00:02:33.538Z,99.90
2017-05-25T00:05:01.846Z,99.90
2017-05-25T00:07:30.141Z,99.90
2017-05-25T00:09:58.454Z,99.90
2017-05-25T00:12:26.782Z,99.90
2017-05-25T00:14:55.094Z,99.90
2017-05-25T00:17:23.416Z,99.90
2017-05-25T00:19:51.738Z,99.90
2017-05-25T00:22:20.038Z,99.90
2017-05-25T00:24:48.344Z,99.90
2017-05-25T00:27:16.684Z,99.90
2017-05-25T00:29:45.000Z,99.90
2017-05-25T00:32:13.302Z,99.90
2017-05-25T00:34:41.709Z,99.90
2017-05-25T00:37:10.102Z,99.90
2017-05-25T00:39:38.397Z,99.90
2017-05-25T00:42:06.719Z,99.90
2017-05-25T00:44:35.113Z,99.90
2017-05-25T00:47:03.447Z,99.90
2017-05-25T00:49:31.773Z,99.90
2017-05-25T00:52:00.073Z,99.90
2017-05-25T00:54:28.396Z,99.90
2017-05-25T00:56:56.710Z,99.90
2017-05-25T00:59:25.048Z,99.90
2017-05-25T01:01:53.354Z,99.90
2017-05-25T01:04:21.667Z,99.90
2017-05-25T01:06:49.998Z,99.90
2017-05-25T01:09:18.304Z,99.90
2017-05-25T01:11:46.606Z,99.90
2017-05-25T01:14:15.041Z,99.90
2017-05-25T01:16:43.339Z,99.90
2017-05-25T01:19:10.882Z,99.90
2017-05-25T01:21:39.206Z,99.90
2017-05-25T01:24:07.540Z,99.90
2017-05-25T01:26:35.072Z,99.90
2017-05-25T01:29:02.613Z,99.90
2017-05-25T01:31:30.181Z,99.90
2017-05-25T01:33:58.491Z,99.90
2017-05-25T01:36:26.790Z,99.90
2017-05-25T01:38:54.349Z,99.90
2017-05-25T01:41:22.652Z,99.90
2017-05-25T01:43:50.945Z,99.90
2017-05-25T01:46:19.275Z,99.90
2017-05-25T01:48:46.808Z,99.90
2017-05-25T01:51:14.340Z,99.90
2017-05-25T01:53:42.665Z,99.90
2017-05-25T01:56:10.966Z,99.90
2017-05-25T01:58:39.409Z,99.90
2017-05-25T02:01:06.980Z,99.90
2017-05-25T02:03:35.285Z,99.90
2017-05-25T02:06:03.590Z,99.90
2017-05-25T02:08:31.931Z,99.90
2017-05-25T02:10:59.466Z,99.90
2017-05-25T02:13:27.783Z,99.90
2017-05-25T02:15:56.122Z,99.90
2017-05-25T02:18:24.423Z,99.90
2017-05-25T02:20:51.966Z,99.90
2017-05-25T02:23:20.322Z,99.90
2017-05-25T02:25:48.626Z,99.90
2017-05-25T02:28:16.930Z,99.90
2017-05-25T02:30:45.256Z,99.90
2017-05-25T02:33:13.569Z,99.90
2017-05-25T02:35:41.881Z,99.90
2017-05-25T02:38:10.229Z,99.90
2017-05-25T02:40:37.770Z,99.90
2017-05-25T02:43:06.084Z,99.90
2017-05-25T02:45:34.411Z,99.90
2017-05-25T02:48:02.027Z,99.90
2017-05-25T02:50:29.597Z,99.90
2017-05-25T02:52:57.899Z,99.90
2017-05-25T02:55:26.197Z,99.90
2017-05-25T02:57:53.767Z,99.90
2017-05-25T03:00:22.076Z,99.90
2017-05-25T03:02:49.611Z,99.90
2017-05-25T03:05:17.943Z,99.90
2017-05-25T03:07:45.486Z,99.90
2017-05-25T03:10:13.023Z,99.90
2017-05-25T03:12:40.582Z,99.90
2017-05-25T03:15:09.459Z,99.90
2017-05-25T03:17:37.762Z,99.90
2017-05-25T03:20:05.326Z,99.90
2017-05-25T03:22:33.631Z,99.90
2017-05-25T03:25:01.978Z,99.90
2017-05-25T03:27:30.294Z,99.90
2017-05-25T03:29:57.835Z,99.90
2017-05-25T03:32:26.291Z,99.90
2017-05-25T03:34:54.595Z,99.90
2017-05-25T03:37:22.900Z,99.90
2017-05-25T03:39:51.513Z,99.90
2017-05-25T03:42:19.826Z,99.90
2017-05-25T03:44:48.131Z,99.90
2017-05-25T03:47:16.463Z,99.90
2017-05-25T03:49:44.783Z,99.90
2017-05-25T03:52:13.117Z,99.90
2017-05-25T03:54:41.412Z,99.90
2017-05-25T03:57:09.719Z,99.90
2017-05-25T03:59:38.038Z,99.90
2017-05-25T04:02:05.585Z,99.90
2017-05-25T04:04:33.899Z,99.90
2017-05-25T04:07:02.220Z,99.90
2017-05-25T04:09:29.751Z,99.90
2017-05-25T04:11:57.279Z,99.90
2017-05-25T04:14:25.594Z,99.90
2017-05-25T04:16:53.923Z,99.90
2017-05-25T04:19:22.279Z,99.90
2017-05-25T04:21:50.584Z,99.90
2017-05-25T04:24:18.892Z,99.90
2017-05-25T04:26:47.214Z,99.90
2017-05-25T04:29:15.508Z,99.90
2017-05-25T04:31:43.846Z,99.90
2017-05-25T04:34:12.410Z,99.90
2017-05-25T04:36:39.971Z,99.90
2017-05-25T04:39:08.302Z,99.90
2017-05-25T04:41:36.602Z,99.90
2017-05-25T04:44:04.903Z,99.90
2017-05-25T04:46:33.229Z,99.90
2017-05-25T04:49:01.560Z,99.90
2017-05-25T04:51:29.101Z,99.90
2017-05-25T04:53:57.403Z,99.90
2017-05-25T04:56:24.969Z,99.90
2017-05-25T04:58:53.258Z,99.90
2017-05-25T05:01:20.798Z,99.90
2017-05-25T05:03:49.132Z,99.90
2017-05-25T05:06:17.423Z,99.90
2017-05-25T05:08:44.956Z,99.90
2017-05-25T05:11:12.516Z,99.90
2017-05-25T05:13:40.839Z,99.90
2017-05-25T05:16:08.368Z,99.90
2017-05-25T05:18:35.931Z,99.90
2017-05-25T05:21:04.222Z,99.90
2017-05-25T05:23:32.578Z,99.90
2017-05-25T05:26:00.922Z,99.90
2017-05-25T05:28:28.450Z,99.90
2017-05-25T05:30:56.744Z,99.90
2017-05-25T05:33:25.066Z,99.90
2017-05-25T05:35:53.368Z,99.90
2017-05-25T05:38:21.658Z,99.90
2017-05-25T05:40:49.226Z,99.90
2017-05-25T05:43:17.557Z,99.90
2017-05-25T05:45:45.125Z,99.90
2017-05-25T05:48:13.455Z,99.90
2017-05-25T05:50:40.985Z,99.90
2017-05-25T05:53:09.281Z,99.90
2017-05-25T05:55:37.613Z,99.90
2017-05-25T05:58:05.143Z,99.90
2017-05-25T06:00:33.440Z,99.90
2017-05-25T06:03:01.755Z,99.90
2017-05-25T06:05:30.053Z,99.90
2017-05-25T06:07:57.608Z,99.90
2017-05-25T06:10:25.146Z,99.90
2017-05-25T06:12:53.495Z,99.90
2017-05-25T06:15:21.834Z,99.90
2017-05-25T06:17:49.361Z,99.90
2017-05-25T06:20:17.994Z,99.90
2017-05-25T06:22:45.546Z,99.90
2017-05-25T06:25:13.842Z,99.90
2017-05-25T06:27:41.386Z,99.90
2017-05-25T06:30:08.942Z,99.90
2017-05-25T06:32:37.234Z,99.90
2017-05-25T06:35:05.531Z,99.90
2017-05-25T06:37:33.090Z,99.90
2017-05-25T06:40:01.393Z,99.90
2017-05-25T06:42:29.685Z,99.90
2017-05-25T06:44:58.010Z,99.90
2017-05-25T06:47:26.305Z,99.90
2017-05-25T06:49:53.863Z,99.90
2017-05-25T06:52:22.164Z,99.90
2017-05-25T06:54:50.469Z,99.90
2017-05-25T06:57:18.785Z,99.90
2017-05-25T06:59:47.082Z,99.90
2017-05-25T07:02:15.396Z,99.90
2017-05-25T07:04:43.712Z,99.90
2017-05-25T07:07:11.237Z,99.90
2017-05-25T07:09:39.564Z,99.90
2017-05-25T07:12:07.883Z,99.90
2017-05-25T07:14:36.182Z,99.90
2017-05-25T07:17:04.482Z,99.90
2017-05-25T07:19:32.793Z,99.90
2017-05-25T07:22:01.095Z,99.90
2017-05-25T07:24:29.418Z,99.90
2017-05-25T07:26:57.710Z,99.90
2017-05-25T07:29:25.246Z,99.90
2017-05-25T07:31:52.838Z,99.90
2017-05-25T07:34:21.132Z,99.10
2017-05-25T07:36:48.662Z,99.00
2017-05-25T07:39:16.978Z,99.90
2017-05-25T07:41:44.514Z,99.90
2017-05-25T07:44:12.805Z,95.20
2017-05-25T07:46:41.126Z,89.60
2017-05-25T07:49:09.429Z,91.50
2017-05-25T07:51:36.962Z,91.50
2017-05-25T07:54:05.285Z,78.80
2017-05-25T07:56:33.581Z,82.10
2017-05-25T07:59:01.146Z,82.10
2017-05-25T08:01:29.469Z,75.20
2017-05-25T08:03:57.771Z,74.80
2017-05-25T08:06:25.319Z,74.80
2017-05-25T08:08:52.877Z,73.10
2017-05-25T08:11:21.167Z,69.70
2017-05-25T08:13:49.471Z,71.70
2017-05-25T08:16:17.789Z,70.30
2017-05-25T08:18:45.316Z,70.20
2017-05-25T08:21:13.614Z,63.50
2017-05-25T08:23:41.931Z,65.50
2017-05-25T08:26:09.466Z,65.50
2017-05-25T08:28:37.012Z,69.80
2017-05-25T08:31:05.348Z,72.00
2017-05-25T08:33:33.654Z,72.10
2017-05-25T08:36:01.949Z,68.80
2017-05-25T08:38:29.498Z,68.80
2017-05-25T08:40:57.033Z,69.70
2017-05-25T08:43:25.355Z,62.90
2017-05-25T08:45:53.654Z,68.80
2017-05-25T08:48:21.955Z,71.90
2017-05-25T08:50:49.511Z,71.90
2017-05-25T08:53:17.813Z,65.80
2017-05-25T08:55:45.345Z,66.70
2017-05-25T08:58:12.894Z,63.60
2017-05-25T09:00:41.213Z,62.10
2017-05-25T09:03:09.541Z,63.60
2017-05-25T09:05:37.086Z,63.60
2017-05-25T09:08:04.624Z,63.30
2017-05-25T09:10:32.970Z,60.50
2017-05-25T09:13:01.271Z,59.50
2017-05-25T09:15:29.567Z,55.80
2017-05-25T09:17:57.892Z,55.90
2017-05-25T09:20:26.203Z,55.30
2017-05-25T09:22:54.575Z,56.90
2017-05-25T09:25:22.886Z,52.00
2017-05-25T09:27:50.487Z,52.00
2017-05-25T09:30:18.046Z,52.70
2017-05-25T09:32:45.583Z,55.80
2017-05-25T09:35:13.878Z,53.20
2017-05-25T09:37:42.266Z,53.80
2017-05-25T09:40:10.578Z,54.00
2017-05-25T09:42:39.107Z,53.20
2017-05-25T09:45:07.422Z,50.50
2017-05-25T09:47:35.774Z,53.40
2017-05-25T09:50:04.086Z,53.00
2017-05-25T09:52:32.390Z,51.90
2017-05-25T09:55:00.809Z,50.70
2017-05-25T09:57:29.182Z,52.10
2017-05-25T09:59:57.481Z,50.20
2017-05-25T10:02:25.841Z,51.20
2017-05-25T10:04:54.138Z,50.40
2017-05-25T10:07:22.466Z,52.20
2017-05-25T10:09:51.202Z,52.40
2017-05-25T10:12:19.599Z,51.70
2017-05-25T10:14:47.939Z,51.80
2017-05-25T10:17:16.333Z,50.70
2017-05-25T10:19:44.629Z,51.20
2017-05-25T10:22:12.927Z,50.10
2017-05-25T10:24:41.359Z,52.40
2017-05-25T10:27:08.887Z,52.50
2017-05-25T10:29:37.196Z,53.80
2017-05-25T10:32:05.514Z,55.20
2017-05-25T10:34:33.850Z,52.70
2017-05-25T10:37:01.386Z,52.70
2017-05-25T10:39:28.918Z,54.10
2017-05-25T10:41:57.238Z,55.60
2017-05-25T10:44:25.536Z,55.20
2017-05-25T10:46:53.871Z,53.10
2017-05-25T10:49:22.195Z,53.20
2017-05-25T10:51:50.495Z,51.90
2017-05-25T10:54:18.825Z,51.00
2017-05-25T10:56:47.124Z,51.30
2017-05-25T10:59:14.654Z,51.30
2017-05-25T11:01:42.973Z,52.70
2017-05-25T11:04:11.278Z,51.90
2017-05-25T11:06:39.589Z,49.40
2017-05-25T11:09:07.883Z,49.70
2017-05-25T11:11:35.438Z,49.80
2017-05-25T11:14:04.023Z,47.50
2017-05-25T11:16:32.362Z,46.60
2017-05-25T11:19:00.677Z,44.90
2017-05-25T11:21:29.010Z,46.80
2017-05-25T11:23:57.306Z,46.80
2017-05-25T11:26:24.869Z,46.80
2017-05-25T11:28:53.219Z,44.20
2017-05-25T11:31:20.750Z,44.10
2017-05-25T11:33:49.091Z,42.00
2017-05-25T11:36:17.378Z,38.90
2017-05-25T11:38:44.919Z,38.80
2017-05-25T11:41:13.254Z,35.10
2017-05-25T11:43:41.549Z,34.60
2017-05-25T11:46:09.838Z,33.70
2017-05-25T11:48:38.185Z,32.10
2017-05-25T11:51:05.718Z,31.40
2017-05-25T11:53:34.014Z,31.40
2017-05-25T11:56:01.582Z,31.40
2017-05-25T11:58:29.118Z,32.80
2017-05-25T12:00:56.652Z,33.10
2017-05-25T12:03:25.284Z,32.60
2017-05-25T12:05:52.823Z,32.50
2017-05-25T12:08:20.367Z,33.70
2017-05-25T12:10:47.922Z,33.60
2017-05-25T12:13:16.224Z,36.40
2017-05-25T12:15:43.757Z,36.40
2017-05-25T12:18:12.077Z,37.80
2017-05-25T12:20:40.371Z,34.80
2017-05-25T12:23:08.661Z,32.70
2017-05-25T12:25:36.219Z,32.70
2017-05-25T12:28:04.515Z,33.10
2017-05-25T12:30:32.817Z,32.90
2017-05-25T12:33:01.133Z,35.30
2017-05-25T12:35:29.430Z,37.20
2017-05-25T12:37:57.726Z,37.30
2017-05-25T12:40:25.299Z,37.30
2017-05-25T12:42:54.178Z,40.50
2017-05-25T12:45:22.478Z,40.10
2017-05-25T12:47:50.026Z,40.00
2017-05-25T12:50:17.566Z,38.90
2017-05-25T12:52:45.954Z,34.10
2017-05-25T12:55:14.250Z,36.40
2017-05-25T12:57:41.840Z,36.40
2017-05-25T13:00:10.143Z,36.10
2017-05-25T13:02:38.445Z,34.40
2017-05-25T13:05:07.002Z,35.00
2017-05-25T13:07:35.332Z,30.30
2017-05-25T13:10:02.873Z,30.30
2017-05-25T13:12:31.168Z,29.40
2017-05-25T13:14:59.511Z,31.60
2017-05-25T13:17:27.057Z,31.50
2017-05-25T13:19:55.352Z,37.50
2017-05-25T13:22:23.687Z,40.00
2017-05-25T13:24:51.980Z,39.40
2017-05-25T13:27:20.280Z,40.00
2017-05-25T13:29:47.828Z,39.90
2017-05-25T13:32:16.131Z,42.90
2017-05-25T13:34:44.516Z,41.90
2017-05-25T13:37:12.823Z,39.00
2017-05-25T13:39:41.262Z,33.90
2017-05-25T13:42:09.590Z,33.70
2017-05-25T13:44:37.890Z,32.90
2017-05-25T13:47:06.199Z,33.80
2017-05-25T13:49:33.739Z,33.90
2017-05-25T13:52:02.054Z,40.30
2017-05-25T13:54:30.618Z,41.10
2017-05-25T13:56:58.914Z,42.40
2017-05-25T13:59:27.462Z,42.10
2017-05-25T14:01:54.993Z,42.10
2017-05-25T14:04:23.315Z,43.10
2017-05-25T14:06:51.617Z,42.20
2017-05-25T14:09:19.914Z,43.70
2017-05-25T14:11:47.465Z,43.70
2017-05-25T14:14:15.787Z,40.80
2017-05-25T14:16:44.095Z,39.40
2017-05-25T14:19:12.397Z,39.50
2017-05-25T14:21:40.719Z,39.40
2017-05-25T14:24:09.009Z,40.00
2017-05-25T14:26:36.565Z,40.00
2017-05-25T14:29:04.119Z,40.40
2017-05-25T14:31:31.651Z,40.90
2017-05-25T14:34:00.833Z,40.70
2017-05-25T14:36:28.366Z,40.60
2017-05-25T14:38:56.666Z,35.50
2017-05-25T14:41:24.242Z,35.40
2017-05-25T14:43:52.539Z,35.00
2017-05-25T14:46:20.871Z,34.90
2017-05-25T14:48:49.183Z,33.50
2017-05-25T14:51:17.486Z,31.40
2017-05-25T14:53:45.800Z,29.80
2017-05-25T14:56:14.123Z,28.20
2017-05-25T14:58:41.658Z,28.20
2017-05-25T15:01:09.210Z,27.30
2017-05-25T15:03:37.534Z,29.60
2017-05-25T15:06:05.840Z,31.50
2017-05-25T15:08:34.136Z,33.50
2017-05-25T15:11:01.701Z,33.40
2017-05-25T15:13:29.999Z,39.70
2017-05-25T15:15:58.302Z,41.80
2017-05-25T15:18:26.620Z,43.70
2017-05-25T15:20:54.938Z,43.80
2017-05-25T15:23:23.237Z,45.30
2017-05-25T15:25:51.553Z,46.20
2017-05-25T15:28:19.953Z,46.50
2017-05-25T15:30:47.508Z,46.50
2017-05-25T15:33:15.806Z,47.80
2017-05-25T15:35:44.102Z,49.50
2017-05-25T15:38:12.423Z,50.20
2017-05-25T15:40:40.730Z,50.20
2017-05-25T15:43:09.027Z,49.60
2017-05-25T15:45:37.356Z,47.30
2017-05-25T15:48:04.891Z,47.30
2017-05-25T15:50:32.426Z,47.90
2017-05-25T15:53:00.744Z,48.00
2017-05-25T15:55:29.042Z,48.50
2017-05-25T15:57:56.598Z,48.40
2017-05-25T16:00:24.894Z,49.50
2017-05-25T16:02:53.206Z,49.50
2017-05-25T16:05:21.558Z,49.40
2017-05-25T16:07:49.884Z,50.60
2017-05-25T16:10:18.214Z,50.60
2017-05-25T16:12:46.607Z,50.50
2017-05-25T16:15:15.066Z,49.90
2017-05-25T16:17:43.400Z,49.80
2017-05-25T16:20:11.729Z,49.70
2017-05-25T16:22:40.027Z,49.30
2017-05-25T16:25:08.389Z,47.90
2017-05-25T16:27:36.768Z,46.40
2017-05-25T16:30:05.069Z,44.20
2017-05-25T16:32:33.417Z,43.40
2017-05-25T16:35:01.739Z,43.20
2017-05-25T16:37:30.074Z,42.20
2017-05-25T16:39:58.447Z,43.00
2017-05-25T16:42:26.747Z,43.40
2017-05-25T16:44:55.084Z,44.90
2017-05-25T16:47:23.509Z,45.90
2017-05-25T16:49:51.814Z,47.20
2017-05-25T16:52:20.192Z,48.20
2017-05-25T16:54:48.524Z,48.70
2017-05-25T16:57:16.907Z,49.30
2017-05-25T16:59:45.270Z,49.50
2017-05-25T17:02:13.570Z,49.00
2017-05-25T17:04:41.911Z,48.50
2017-05-25T17:07:10.418Z,47.70
2017-05-25T17:09:38.727Z,47.60
2017-05-25T17:12:07.086Z,47.30
2017-05-25T17:14:35.438Z,47.40
2017-05-25T17:17:03.734Z,48.40
2017-05-25T17:19:32.070Z,49.30
2017-05-25T17:22:00.482Z,49.90
2017-05-25T17:24:28.781Z,50.10
2017-05-25T17:26:57.111Z,50.30
2017-05-25T17:29:25.520Z,50.40
2017-05-25T17:31:53.897Z,50.70
2017-05-25T17:34:22.195Z,50.20
2017-05-25T17:36:50.535Z,51.90
2017-05-25T17:39:18.835Z,53.40
2017-05-25T17:41:47.135Z,53.30
2017-05-25T17:44:15.459Z,54.10
2017-05-25T17:46:43.755Z,54.10
2017-05-25T17:49:12.111Z,54.20
2017-05-25T17:51:40.510Z,54.30
2017-05-25T17:54:08.877Z,55.60
2017-05-25T17:56:37.175Z,53.90
2017-05-25T17:59:05.498Z,55.00
2017-05-25T18:01:33.810Z,54.70
2017-05-25T18:04:02.200Z,54.90
2017-05-25T18:06:30.562Z,55.50
2017-05-25T18:08:58.886Z,55.00
2017-05-25T18:11:27.284Z,55.80
2017-05-25T18:13:55.590Z,55.40
2017-05-25T18:16:23.935Z,55.70
2017-05-25T18:18:52.269Z,56.20
2017-05-25T18:21:20.573Z,56.40
2017-05-25T18:23:48.919Z,56.80
2017-05-25T18:26:17.257Z,57.40
2017-05-25T18:28:45.609Z,57.50
2017-05-25T18:31:13.955Z,58.30
2017-05-25T18:33:42.301Z,58.40
2017-05-25T18:36:10.596Z,59.10
2017-05-25T18:38:38.893Z,60.00
2017-05-25T18:41:07.261Z,61.10
2017-05-25T18:43:35.573Z,62.50
2017-05-25T18:46:03.909Z,63.60
2017-05-25T18:48:32.416Z,64.40
2017-05-25T18:51:00.770Z,65.10
2017-05-25T18:53:29.149Z,65.80
2017-05-25T18:55:57.526Z,67.70
2017-05-25T18:58:26.215Z,70.70
2017-05-25T19:00:54.571Z,72.90
2017-05-25T19:03:23.043Z,76.00
2017-05-25T19:05:51.353Z,80.40
2017-05-25T19:08:19.926Z,86.50
2017-05-25T19:10:48.314Z,90.90
2017-05-25T19:13:16.637Z,94.70
2017-05-25T19:15:44.958Z,97.80
2017-05-25T19:18:13.362Z,99.90
2017-05-25T19:20:41.706Z,99.90
2017-05-25T19:23:10.002Z,99.90
2017-05-25T19:25:38.327Z,99.90
2017-05-25T19:28:06.653Z,99.90
2017-05-25T19:30:34.970Z,99.90
2017-05-25T19:33:03.396Z,99.90
2017-05-25T19:35:31.702Z,99.90
2017-05-25T19:38:00.002Z,99.90
2017-05-25T19:40:28.347Z,99.90
2017-05-25T19:42:56.667Z,99.90
2017-05-25T19:45:25.596Z,99.90
2017-05-25T19:47:53.993Z,99.90
2017-05-25T19:50:22.454Z,99.90
2017-05-25T19:52:50.784Z,99.90
2017-05-25T19:55:19.119Z,99.90
2017-05-25T19:57:47.743Z,99.90
2017-05-25T20:00:16.088Z,99.90
2017-05-25T20:02:44.467Z,99.90
2017-05-25T20:05:12.838Z,99.90
2017-05-25T20:07:41.143Z,99.90
2017-05-25T20:10:09.458Z,99.90
2017-05-25T20:12:37.874Z,99.90
2017-05-25T20:15:06.204Z,99.90
2017-05-25T20:17:34.511Z,99.90
2017-05-25T20:20:02.853Z,99.90
2017-05-25T20:22:31.181Z,99.90
2017-05-25T20:24:59.490Z,99.90
2017-05-25T20:27:27.846Z,99.90
2017-05-25T20:29:56.156Z,99.90
2017-05-25T20:32:24.458Z,99.90
2017-05-25T20:34:52.787Z,99.90
2017-05-25T20:37:21.093Z,99.90
2017-05-25T20:39:49.414Z,99.90
2017-05-25T20:42:17.871Z,99.90
2017-05-25T20:44:46.174Z,99.90
2017-05-25T20:47:14.477Z,99.90
2017-05-25T20:49:42.822Z,99.90
2017-05-25T20:52:11.229Z,99.90
2017-05-25T20:54:39.594Z,99.90
2017-05-25T20:57:07.947Z,99.90
2017-05-25T20:59:36.441Z,99.90
2017-05-25T21:02:04.739Z,99.90
2017-05-25T21:04:33.082Z,99.90
2017-05-25T21:07:01.477Z,99.90
2017-05-25T21:09:29.778Z,99.90
2017-05-25T21:11:58.094Z,99.90
2017-05-25T21:14:26.408Z,99.90
2017-05-25T21:16:54.734Z,99.90
2017-05-25T21:19:23.079Z,99.90
2017-05-25T21:21:51.462Z,99.90
2017-05-25T21:24:19.832Z,99.90
2017-05-25T21:26:48.156Z,99.90
2017-05-25T21:29:16.501Z,99.90
2017-05-25T21:31:44.861Z,99.90
2017-05-25T21:34:13.166Z,99.90
2017-05-25T21:36:41.510Z,99.90
2017-05-25T21:39:09.826Z,99.90
2017-05-25T21:41:38.160Z,99.90
2017-05-25T21:44:06.465Z,99.90
2017-05-25T21:46:34.771Z,99.90
2017-05-25T21:49:03.099Z,99.90
2017-05-25T21:51:31.394Z,99.90
2017-05-25T21:53:59.694Z,99.90
2017-05-25T21:56:28.027Z,99.90
2017-05-25T21:58:56.412Z,99.90
2017-05-25T22:01:24.810Z,99.90
2017-05-25T22:03:53.190Z,99.90
2017-05-25T22:06:21.550Z,99.90
2017-05-25T22:08:49.934Z,99.90
2017-05-25T22:11:18.262Z,99.90
2017-05-25T22:13:46.587Z,99.90
2017-05-25T22:16:14.894Z,99.90
2017-05-25T22:18:43.235Z,99.90
2017-05-25T22:21:11.533Z,99.90
2017-05-25T22:23:39.895Z,99.90
2017-05-25T22:26:08.261Z,99.90
2017-05-25T22:28:36.962Z,99.90
2017-05-25T22:31:05.350Z,99.90
2017-05-25T22:33:33.662Z,99.90
2017-05-25T22:36:01.993Z,99.90
2017-05-25T22:38:30.365Z,99.90
2017-05-25T22:40:58.665Z,99.90
2017-05-25T22:43:26.967Z,99.90
2017-05-25T22:45:55.304Z,99.90
2017-05-25T22:48:23.605Z,99.90
2017-05-25T22:50:52.014Z,99.90
2017-05-25T22:53:20.429Z,99.90
2017-05-25T22:55:48.825Z,99.90
2017-05-25T22:58:17.162Z,99.90
2017-05-25T23:00:45.455Z,99.90
2017-05-25T23:03:13.754Z,99.90
2017-05-25T23:05:42.088Z,99.90
2017-05-25T23:08:10.383Z,99.90
2017-05-25T23:10:38.689Z,99.90
2017-05-25T23:13:07.153Z,99.90
2017-05-25T23:15:35.543Z,99.90
2017-05-25T23:18:03.910Z,99.90
2017-05-25T23:20:32.298Z,99.90
2017-05-25T23:23:00.786Z,99.90
2017-05-25T23:25:29.099Z,99.90
2017-05-25T23:27:57.437Z,99.90
2017-05-25T23:30:25.742Z,99.90
2017-05-25T23:32:54.046Z,99.90
2017-05-25T23:35:22.380Z,99.90
2017-05-25T23:37:50.745Z,99.90
2017-05-25T23:40:19.069Z,99.90
2017-05-25T23:42:47.370Z,99.90
2017-05-25T23:45:15.675Z,99.90
2017-05-25T23:47:44.146Z,99.90
2017-05-25T23:50:12.453Z,99.90
2017-05-25T23:52:40.809Z,99.90
2017-05-25T23:55:09.131Z,99.90
2017-05-25T23:57:37.427Z,99.90
